Time;durP1;ratioP1;P1;durP2;ratioP2;P2;SDS_P1;SDS_P2;PMS_P1;PMS_P2;Temp;Humidity;BMP_temperature;BMP_pressure;BME280_temperature;BME280_humidity;BME280_pressure;Samples;Min_cycle;Max_cycle;Signal;HPM_P1;HPM_P2
2021/08/09 00:00:26;;;;;;;5.33;3.00;;;15.80;99.90;;;;;;4988792;28;20481;-85
2021/08/09 00:02:52;;;;;;;3.03;2.83;;;16.00;99.90;;;;;;4984612;28;20449;-85
2021/08/09 00:05:19;;;;;;;2.70;2.50;;;15.70;99.90;;;;;;4981427;28;20453;-85
2021/08/09 00:07:45;;;;;;;5.23;2.70;;;15.70;99.90;;;;;;4992534;28;20473;-84
2021/08/09 00:10:13;;;;;;;3.80;2.90;;;15.80;99.90;;;;;;4995551;28;20446;-84
2021/08/09 00:12:40;;;;;;;4.77;3.30;;;15.70;99.90;;;;;;4983275;28;20477;-84
2021/08/09 00:15:07;;;;;;;3.23;2.93;;;15.70;99.90;;;;;;4992528;28;20446;-83
2021/08/09 00:17:34;;;;;;;2.70;2.60;;;15.60;99.90;;;;;;4996516;28;20465;-84
2021/08/09 00:20:01;;;;;;;3.03;2.73;;;;;;;;;;4981037;28;20605;-85
2021/08/09 00:22:27;;;;;;;3.07;2.73;;;15.70;99.90;;;;;;4981766;28;20524;-84
2021/08/09 00:24:54;;;;;;;3.90;2.77;;;15.80;99.90;;;;;;4978956;28;20457;-84
2021/08/09 00:27:22;;;;;;;3.03;2.13;;;15.70;99.90;;;;;;4979768;28;20474;-85
2021/08/09 00:29:48;;;;;;;2.50;2.30;;;15.70;99.90;;;;;;4979526;28;20465;-84
2021/08/09 00:32:15;;;;;;;2.90;2.47;;;15.70;99.90;;;;;;4978936;28;20485;-84
2021/08/09 00:34:42;;;;;;;3.13;2.83;;;15.60;99.90;;;;;;4979530;28;20544;-85
2021/08/09 00:37:08;;;;;;;2.90;2.60;;;15.60;99.90;;;;;;4979203;28;20521;-85
2021/08/09 00:39:35;;;;;;;3.67;2.90;;;15.60;99.90;;;;;;4979739;28;21014;-84
2021/08/09 00:42:01;;;;;;;3.07;2.80;;;15.60;99.90;;;;;;4978619;28;21094;-84
2021/08/09 00:44:29;;;;;;;3.70;2.73;;;15.60;99.90;;;;;;4979091;28;20974;-85
2021/08/09 00:46:56;;;;;;;5.20;2.50;;;15.60;99.90;;;;;;4978520;28;20482;-84
2021/08/09 00:49:22;;;;;;;3.10;2.90;;;15.50;99.90;;;;;;4978997;28;20438;-84
2021/08/09 00:51:51;;;;;;;3.97;2.40;;;15.50;99.90;;;;;;4978445;28;20489;-84
2021/08/09 00:54:18;;;;;;;2.77;2.57;;;;;;;;;;4978865;28;20480;-85
2021/08/09 00:56:45;;;;;;;2.37;2.17;;;15.40;99.90;;;;;;4979316;28;20476;-85
2021/08/09 00:59:12;;;;;;;2.53;2.30;;;15.30;99.90;;;;;;4978817;28;20497;-85
2021/08/09 01:01:40;;;;;;;2.60;2.40;;;15.40;99.90;;;;;;4979062;28;20521;-85
2021/08/09 01:04:08;;;;;;;4.93;2.40;;;15.40;99.90;;;;;;4979643;28;20446;-84
2021/08/09 01:06:35;;;;;;;3.30;2.40;;;15.30;99.90;;;;;;4977867;28;20532;-85
2021/08/09 01:09:07;;;;;;;3.13;2.43;;;15.40;99.90;;;;;;4979104;28;20974;-85
2021/08/09 01:11:40;;;;;;;2.30;2.10;;;15.40;99.90;;;;;;4979254;28;20430;-84
2021/08/09 01:14:14;;;;;;;5.43;2.20;;;15.30;99.90;;;;;;4979182;28;20465;-84
2021/08/09 01:16:44;;;;;;;2.50;2.30;;;15.30;99.90;;;;;;4977420;28;20470;-85
2021/08/09 01:19:32;;;;;;;3.00;2.60;;;15.30;99.90;;;;;;4977465;28;20485;-85
2021/08/09 01:22:07;;;;;;;3.30;2.00;;;15.30;99.90;;;;;;4978379;28;20472;-85
2021/08/09 01:24:41;;;;;;;2.43;2.27;;;15.30;99.90;;;;;;4981319;28;20430;-85
2021/08/09 01:27:19;;;;;;;2.03;1.93;;;15.20;99.90;;;;;;4980787;28;20477;-85
2021/08/09 01:29:47;;;;;;;3.50;3.20;;;15.20;99.90;;;;;;4980509;28;20437;-85
2021/08/09 01:32:16;;;;;;;2.83;2.37;;;15.20;99.90;;;;;;4980338;28;21020;-85
2021/08/09 01:34:43;;;;;;;2.33;2.23;;;15.10;99.90;;;;;;4980984;28;20529;-85
2021/08/09 01:37:11;;;;;;;3.00;2.53;;;15.10;99.90;;;;;;4980579;28;20470;-85
2021/08/09 01:39:38;;;;;;;2.90;2.00;;;15.10;99.90;;;;;;4981369;28;20488;-85
2021/08/09 01:42:06;;;;;;;3.87;2.50;;;15.20;99.90;;;;;;4980353;28;20453;-86
2021/08/09 01:44:35;;;;;;;5.23;2.63;;;14.10;99.90;;;;;;4980402;28;20590;-85
2021/08/09 01:47:02;;;;;;;2.97;2.00;;;15.20;99.90;;;;;;4979820;28;20508;-85
2021/08/09 01:49:29;;;;;;;2.10;2.00;;;15.10;99.90;;;;;;4981740;28;20437;-87
2021/08/09 01:51:57;;;;;;;2.00;1.90;;;15.10;99.90;;;;;;4988455;28;20493;-85
2021/08/09 01:54:25;;;;;;;2.20;2.00;;;15.10;99.90;;;;;;4982084;28;20454;-85
2021/08/09 01:56:51;;;;;;;2.83;2.13;;;15.10;99.90;;;;;;4980089;28;20601;-85
2021/08/09 01:59:20;;;;;;;2.20;2.10;;;15.10;99.90;;;;;;4980378;28;20453;-85
2021/08/09 02:01:48;;;;;;;3.40;2.77;;;15.10;99.90;;;;;;4980147;28;20485;-85
2021/08/09 02:04:15;;;;;;;5.00;2.60;;;15.10;99.90;;;;;;4979853;28;20985;-86
2021/08/09 02:06:43;;;;;;;3.97;2.20;;;15.10;99.90;;;;;;4980653;28;20474;-85
2021/08/09 02:09:10;;;;;;;3.20;2.23;;;15.10;99.90;;;;;;4980940;28;20493;-85
2021/08/09 02:11:46;;;;;;;3.77;2.40;;;15.00;99.90;;;;;;4979660;28;20500;-85
2021/08/09 02:14:15;;;;;;;2.83;2.50;;;15.00;99.90;;;;;;4979774;28;20438;-85
2021/08/09 02:16:48;;;;;;;2.77;2.60;;;14.90;99.90;;;;;;4981142;28;20517;-85
2021/08/09 02:19:21;;;;;;;2.27;2.07;;;14.80;99.90;;;;;;4979507;28;20444;-85
2021/08/09 02:21:53;;;;;;;4.10;2.43;;;14.60;99.90;;;;;;4979883;28;20469;-85
2021/08/09 02:24:24;;;;;;;2.90;1.63;;;14.60;99.90;;;;;;4980166;28;20473;-85
2021/08/09 02:26:55;;;;;;;3.90;2.60;;;16.00;99.90;;;;;;4980511;28;20885;-86
2021/08/09 02:29:26;;;;;;;2.87;2.67;;;14.50;99.90;;;;;;4979779;28;20473;-86
2021/08/09 02:31:54;;;;;;;2.07;1.97;;;14.60;99.90;;;;;;4979944;28;20476;-85
2021/08/09 02:34:26;;;;;;;5.20;2.97;;;14.50;99.90;;;;;;4978588;28;20508;-85
2021/08/09 02:36:53;;;;;;;5.30;3.00;;;14.60;99.90;;;;;;4979651;28;20481;-85
2021/08/09 02:39:20;;;;;;;2.33;2.13;;;14.50;99.90;;;;;;4980560;28;20481;-86
2021/08/09 02:41:47;;;;;;;3.53;2.60;;;14.50;99.90;;;;;;4979480;28;21014;-85
2021/08/09 02:44:15;;;;;;;3.67;2.57;;;14.40;99.90;;;;;;4979010;28;20450;-85
2021/08/09 02:46:42;;;;;;;2.33;2.10;;;14.50;99.90;;;;;;4979181;28;20536;-85
2021/08/09 02:49:10;;;;;;;2.43;2.23;;;14.40;99.90;;;;;;4979030;28;20465;-85
2021/08/09 02:51:38;;;;;;;5.40;2.20;;;14.50;99.90;;;;;;4978525;28;20973;-85
2021/08/09 02:54:05;;;;;;;3.33;2.00;;;14.40;99.90;;;;;;4980152;28;20488;-85
2021/08/09 02:56:33;;;;;;;2.63;1.87;;;14.40;99.90;;;;;;4979241;28;20476;-86
2021/08/09 02:59:00;;;;;;;2.53;2.33;;;14.40;99.90;;;;;;4979439;28;20454;-86
2021/08/09 03:01:30;;;;;;;2.60;2.40;;;14.30;99.90;;;;;;4979733;28;20489;-85
2021/08/09 03:03:59;;;;;;;4.03;2.40;;;14.30;99.90;;;;;;4979623;28;20490;-84
2021/08/09 03:06:26;;;;;;;2.50;2.30;;;14.20;99.90;;;;;;4980352;28;20469;-85
2021/08/09 03:08:57;;;;;;;3.63;2.90;;;14.20;99.90;;;;;;4990492;28;20449;-85
2021/08/09 03:11:24;;;;;;;2.37;2.17;;;14.10;99.90;;;;;;4994363;28;20445;-85
2021/08/09 03:13:51;;;;;;;2.30;2.20;;;14.20;99.90;;;;;;4993344;28;20446;-85
2021/08/09 03:16:18;;;;;;;6.50;3.03;;;14.20;99.90;;;;;;4993791;28;20473;-84
2021/08/09 03:18:45;;;;;;;3.03;2.70;;;14.10;99.90;;;;;;4998400;28;20450;-83
2021/08/09 03:21:12;;;;;;;4.93;2.73;;;14.10;99.90;;;;;;4999852;28;20486;-84
2021/08/09 03:23:38;;;;;;;8.23;2.93;;;14.00;99.90;;;;;;4999276;28;20477;-83
2021/08/09 03:26:06;;;;;;;2.60;2.40;;;14.00;99.90;;;;;;4995873;28;20942;-85
2021/08/09 03:28:33;;;;;;;4.27;2.40;;;14.00;99.90;;;;;;4996074;28;20466;-85
2021/08/09 03:31:02;;;;;;;2.73;2.53;;;13.90;99.90;;;;;;4999650;28;20453;-85
2021/08/09 03:33:29;;;;;;;2.60;2.40;;;14.00;99.90;;;;;;4990634;28;20973;-85
2021/08/09 03:35:56;;;;;;;2.77;2.57;;;13.90;99.90;;;;;;4979884;28;20473;-85
2021/08/09 03:38:22;;;;;;;3.10;2.90;;;14.00;99.90;;;;;;4978907;28;20485;-86
2021/08/09 03:40:49;;;;;;;4.00;2.40;;;14.00;99.90;;;;;;4979061;28;20513;-85
2021/08/09 03:43:17;;;;;;;3.17;2.23;;;14.00;99.90;;;;;;4980248;28;20492;-84
2021/08/09 03:45:43;;;;;;;2.87;2.67;;;13.90;99.90;;;;;;4978136;28;20454;-85
2021/08/09 03:48:10;;;;;;;3.67;2.87;;;13.90;99.90;;;;;;4977192;28;20508;-85
2021/08/09 03:50:37;;;;;;;5.40;3.80;;;13.90;99.90;;;;;;4977717;28;20628;-85
2021/08/09 03:53:03;;;;;;;7.60;3.70;;;14.00;99.90;;;;;;4978441;28;20445;-85
2021/08/09 03:55:30;;;;;;;6.20;3.47;;;14.00;99.90;;;;;;4978287;28;20453;-85
2021/08/09 03:57:57;;;;;;;3.90;3.43;;;14.00;99.90;;;;;;4977919;28;20508;-85
2021/08/09 04:00:24;;;;;;;6.23;3.37;;;14.00;99.90;;;;;;4977921;28;20450;-85
2021/08/09 04:02:51;;;;;;;3.87;3.43;;;14.00;99.90;;;;;;4978287;28;20454;-84
2021/08/09 04:05:18;;;;;;;3.63;2.80;;;14.00;99.90;;;;;;4980032;28;20454;-85
2021/08/09 04:07:44;;;;;;;3.77;2.73;;;14.10;99.90;;;;;;4977879;28;20532;-85
2021/08/09 04:10:11;;;;;;;3.83;3.47;;;14.10;99.90;;;;;;4977865;28;20442;-85
2021/08/09 04:12:38;;;;;;;5.30;3.87;;;14.00;99.90;;;;;;4977640;28;20477;-84
2021/08/09 04:15:07;;;;;;;4.00;3.30;;;14.00;99.90;;;;;;4977416;28;20450;-84
2021/08/09 04:17:35;;;;;;;3.70;2.73;;;13.90;99.90;;;;;;4987022;28;20478;-85
2021/08/09 04:20:02;;;;;;;4.00;3.10;;;14.00;99.90;;;;;;4990056;28;20457;-85
2021/08/09 04:22:29;;;;;;;5.10;3.10;;;14.00;99.90;;;;;;4989385;28;20482;-85
2021/08/09 04:24:55;;;;;;;6.30;3.60;;;14.10;99.90;;;;;;4987530;28;20442;-84
2021/08/09 04:27:22;;;;;;;10.00;4.20;;;14.10;99.90;;;;;;4989164;28;20474;-85
2021/08/09 04:29:48;;;;;;;7.23;3.07;;;14.10;99.90;;;;;;4988263;28;20454;-85
2021/08/09 04:32:16;;;;;;;4.83;3.60;;;14.20;99.90;;;;;;4986368;28;20442;-85
2021/08/09 04:35:06;;;;;;;5.27;3.70;;;14.20;99.90;;;;;;4990924;28;20450;-85
2021/08/09 04:37:33;;;;;;;3.87;3.30;;;;;;;;;;4986352;28;20476;-85
2021/08/09 04:40:00;;;;;;;3.83;2.80;;;14.10;99.90;;;;;;4986584;28;20481;-85
2021/08/09 04:42:26;;;;;;;8.00;4.07;;;14.20;99.90;;;;;;4991103;28;20485;-85
2021/08/09 04:44:53;;;;;;;5.20;3.50;;;14.10;99.90;;;;;;4995778;28;20430;-84
2021/08/09 04:47:19;;;;;;;5.90;3.87;;;14.00;99.90;;;;;;4995292;28;20473;-84
2021/08/09 04:49:46;;;;;;;3.80;3.27;;;14.00;99.90;;;;;;4993197;28;20481;-85
2021/08/09 04:52:15;;;;;;;4.80;3.40;;;14.10;99.90;;;;;;4995626;28;20446;-85
2021/08/09 04:54:42;;;;;;;4.30;3.67;;;14.20;99.90;;;;;;4995554;28;20533;-85
2021/08/09 04:57:09;;;;;;;4.50;3.70;;;14.30;99.90;;;;;;4989369;28;20468;-85
2021/08/09 04:59:35;;;;;;;4.43;3.97;;;14.40;99.90;;;;;;4995502;28;20948;-85
2021/08/09 05:02:02;;;;;;;5.00;3.23;;;14.40;99.90;;;;;;4986843;28;20839;-84
2021/08/09 05:04:28;;;;;;;7.10;4.13;;;14.40;99.90;;;;;;4979005;28;20445;-85
2021/08/09 05:06:55;;;;;;;6.53;3.60;;;14.40;99.90;;;;;;4980689;28;21056;-85
2021/08/09 05:09:23;;;;;;;7.83;3.57;;;14.50;99.90;;;;;;4980760;28;20800;-84
2021/08/09 05:11:49;;;;;;;5.87;3.70;;;14.50;99.90;;;;;;4982045;28;20842;-85
2021/08/09 05:14:16;;;;;;;4.60;3.20;;;14.60;99.90;;;;;;4982605;28;20454;-85
2021/08/09 05:16:43;;;;;;;6.37;2.80;;;14.70;99.90;;;;;;4983881;28;20477;-84
2021/08/09 05:19:11;;;;;;;3.87;3.40;;;14.80;99.90;;;;;;4981186;28;21049;-85
2021/08/09 05:21:38;;;;;;;4.50;4.20;;;14.90;99.90;;;;;;4987933;28;20489;-82
2021/08/09 05:24:05;;;;;;;4.43;3.83;;;14.90;99.90;;;;;;4988166;28;20452;-83
2021/08/09 05:26:33;;;;;;;4.37;2.80;;;14.90;99.90;;;;;;4991006;28;20465;-83
2021/08/09 05:29:00;;;;;;;4.73;3.07;;;14.90;99.90;;;;;;4989801;28;20502;-82
2021/08/09 05:31:27;;;;;;;4.80;3.57;;;14.90;99.90;;;;;;4979819;28;20474;-84
2021/08/09 05:33:56;;;;;;;3.33;3.03;;;14.90;99.90;;;;;;4978314;28;20830;-85
2021/08/09 05:36:25;;;;;;;4.30;3.90;;;15.00;99.90;;;;;;4977084;28;20525;-85
2021/08/09 05:38:53;;;;;;;3.47;2.77;;;15.10;99.90;;;;;;4977008;28;20461;-85
2021/08/09 05:41:20;;;;;;;6.23;3.43;;;;;;;;;;4979047;28;20478;-85
2021/08/09 05:43:48;;;;;;;6.50;3.43;;;15.10;99.90;;;;;;4978357;28;20482;-84
2021/08/09 05:46:15;;;;;;;4.70;3.27;;;15.30;99.90;;;;;;4978409;28;20528;-84
2021/08/09 05:48:41;;;;;;;4.57;2.90;;;15.40;99.90;;;;;;4984325;28;20454;-83
2021/08/09 05:51:08;;;;;;;6.10;3.93;;;15.50;99.90;;;;;;4986895;28;20442;-84
2021/08/09 05:53:35;;;;;;;4.27;3.30;;;15.50;99.90;;;;;;4978488;28;20508;-84
2021/08/09 05:56:01;;;;;;;4.60;4.20;;;15.60;99.90;;;;;;4978727;28;20830;-84
2021/08/09 05:58:28;;;;;;;3.70;3.40;;;15.60;99.90;;;;;;4977623;28;20498;-83
2021/08/09 06:00:56;;;;;;;5.50;3.40;;;15.70;99.90;;;;;;4976783;28;21021;-85
2021/08/09 06:03:23;;;;;;;4.63;3.20;;;15.80;99.90;;;;;;4976391;28;20779;-84
2021/08/09 06:05:52;;;;;;;5.07;3.13;;;15.80;99.90;;;;;;4976673;28;21034;-84
2021/08/09 06:08:18;;;;;;;3.33;2.80;;;15.80;99.90;;;;;;4977060;28;20544;-84
2021/08/09 06:10:45;;;;;;;3.13;2.80;;;15.90;99.90;;;;;;4980382;28;20454;-83
2021/08/09 06:13:12;;;;;;;9.83;6.70;;;15.90;99.90;;;;;;4980285;28;20951;-83
2021/08/09 06:15:38;;;;;;;6.33;5.20;;;15.90;99.90;;;;;;4983265;28;20454;-83
2021/08/09 06:18:06;;;;;;;3.10;2.83;;;16.10;99.90;;;;;;4982368;28;20470;-84
2021/08/09 06:20:34;;;;;;;5.70;4.40;;;16.20;99.90;;;;;;4980417;28;21017;-84
2021/08/09 06:23:01;;;;;;;5.10;2.70;;;16.50;99.90;;;;;;4981072;28;20489;-84
2021/08/09 06:25:27;;;;;;;3.70;2.80;;;16.20;99.90;;;;;;4982622;28;20508;-83
2021/08/09 06:27:54;;;;;;;9.20;3.17;;;16.20;99.90;;;;;;4980368;28;20466;-84
2021/08/09 06:30:21;;;;;;;6.40;4.70;;;16.30;99.90;;;;;;4980469;28;20500;-83
2021/08/09 06:32:47;;;;;;;3.80;2.83;;;16.40;99.90;;;;;;4981592;28;20450;-83
2021/08/09 06:35:15;;;;;;;6.43;4.83;;;16.30;99.90;;;;;;4979350;28;20457;-83
2021/08/09 06:37:42;;;;;;;3.73;2.93;;;16.60;99.90;;;;;;4985488;28;20522;-81
2021/08/09 06:40:10;;;;;;;2.97;2.70;;;16.70;99.90;;;;;;4988224;28;20517;-82
2021/08/09 06:42:37;;;;;;;2.13;2.00;;;16.70;99.90;;;;;;4983041;28;20609;-82
2021/08/09 06:45:04;;;;;;;8.13;2.87;;;16.70;99.90;;;;;;4981015;28;20453;-82
2021/08/09 06:47:31;;;;;;;2.70;2.50;;;;;;;;;;4985332;28;20564;-82
2021/08/09 06:49:57;;;;;;;3.97;2.53;;;16.90;99.90;;;;;;4982017;28;20457;-83
2021/08/09 06:52:25;;;;;;;5.70;2.53;;;16.90;99.90;;;;;;4979478;28;20450;-83
2021/08/09 06:54:57;;;;;;;2.70;2.50;;;17.00;99.90;;;;;;4978903;28;20462;-84
2021/08/09 06:57:23;;;;;;;4.80;3.03;;;17.00;99.90;;;;;;4980266;28;20474;-84
2021/08/09 06:59:50;;;;;;;2.63;2.43;;;17.00;99.90;;;;;;4979162;28;20458;-83
2021/08/09 07:02:16;;;;;;;5.30;3.23;;;17.10;99.90;;;;;;4979000;28;20552;-83
2021/08/09 07:04:43;;;;;;;5.43;2.50;;;17.10;99.90;;;;;;4979175;28;20516;-83
2021/08/09 07:07:09;;;;;;;5.37;2.40;;;17.00;99.90;;;;;;4978677;28;20482;-83
2021/08/09 07:09:37;;;;;;;3.00;2.40;;;17.00;99.90;;;;;;4979904;28;20481;-82
2021/08/09 07:12:04;;;;;;;3.37;2.70;;;17.10;99.90;;;;;;4979621;28;20445;-83
2021/08/09 07:14:31;;;;;;;2.90;2.30;;;17.00;99.90;;;;;;4979246;28;20901;-83
2021/08/09 07:16:58;;;;;;;3.50;2.43;;;17.20;99.90;;;;;;4980671;28;20497;-84
2021/08/09 07:19:24;;;;;;;2.83;2.57;;;17.30;99.90;;;;;;4979008;28;20457;-83
2021/08/09 07:21:51;;;;;;;2.70;2.50;;;17.30;99.90;;;;;;4979256;28;20517;-83
2021/08/09 07:24:17;;;;;;;5.23;3.00;;;17.30;99.90;;;;;;4980344;28;20962;-81
2021/08/09 07:26:46;;;;;;;4.77;2.70;;;17.30;99.90;;;;;;4982128;28;20470;-82
2021/08/09 07:29:12;;;;;;;4.07;3.63;;;17.30;99.90;;;;;;4981374;28;20453;-83
2021/08/09 07:31:39;;;;;;;3.83;3.53;;;17.20;99.90;;;;;;4981009;28;20449;-81
2021/08/09 07:34:05;;;;;;;4.60;2.23;;;17.60;99.90;;;;;;4981338;28;20457;-82
2021/08/09 07:36:32;;;;;;;7.03;4.40;;;17.40;99.90;;;;;;4981484;28;20477;-82
2021/08/09 07:38:58;;;;;;;4.10;3.70;;;17.50;99.90;;;;;;4981734;28;20454;-82
2021/08/09 07:41:25;;;;;;;2.60;2.33;;;17.50;99.90;;;;;;4981361;28;20504;-81
2021/08/09 07:43:53;;;;;;;4.30;2.80;;;17.50;99.90;;;;;;4985462;28;20538;-81
2021/08/09 07:46:20;;;;;;;2.80;2.60;;;17.50;99.90;;;;;;4987679;28;20516;-82
2021/08/09 07:48:46;;;;;;;3.17;2.97;;;17.50;99.90;;;;;;4986161;28;20528;-81
2021/08/09 07:51:14;;;;;;;4.23;2.47;;;17.70;99.90;;;;;;4987944;28;20450;-81
2021/08/09 07:53:40;;;;;;;3.77;3.10;;;17.70;99.90;;;;;;4983667;28;20942;-82
2021/08/09 07:56:07;;;;;;;7.20;4.83;;;17.50;99.90;;;;;;4982656;28;20816;-82
2021/08/09 07:58:33;;;;;;;9.70;6.43;;;17.70;99.90;;;;;;4982394;28;20482;-82
2021/08/09 08:01:01;;;;;;;6.33;3.13;;;17.80;99.90;;;;;;4982036;28;20450;-82
2021/08/09 08:03:28;;;;;;;3.40;3.10;;;17.80;99.90;;;;;;4982005;28;20486;-83
2021/08/09 08:05:54;;;;;;;3.83;2.90;;;17.70;99.90;;;;;;4981992;28;20453;-82
2021/08/09 08:08:24;;;;;;;4.40;3.27;;;18.00;99.90;;;;;;4981628;28;20454;-83
2021/08/09 08:10:51;;;;;;;3.73;3.00;;;17.90;99.90;;;;;;4981245;28;20835;-81
2021/08/09 08:13:17;;;;;;;2.60;2.40;;;17.90;99.90;;;;;;4981523;28;20450;-82
2021/08/09 08:15:44;;;;;;;3.00;2.70;;;17.90;99.90;;;;;;4981452;28;20449;-81
2021/08/09 08:18:12;;;;;;;3.57;2.80;;;17.90;99.90;;;;;;4981251;28;20566;-81
2021/08/09 08:20:38;;;;;;;4.80;2.97;;;17.90;99.90;;;;;;4981379;28;20825;-81
2021/08/09 08:23:05;;;;;;;7.47;2.70;;;17.90;99.90;;;;;;4982571;28;20485;-81
2021/08/09 08:25:33;;;;;;;3.93;2.30;;;17.90;99.90;;;;;;4993441;28;20454;-81
2021/08/09 08:27:59;;;;;;;4.93;3.13;;;17.90;99.90;;;;;;4992940;28;20561;-82
2021/08/09 08:30:26;;;;;;;3.13;2.83;;;17.80;99.90;;;;;;4986338;28;20461;-81
2021/08/09 08:32:53;;;;;;;9.83;7.30;;;17.50;99.90;;;;;;4981377;28;20453;-82
2021/08/09 08:35:21;;;;;;;10.03;8.13;;;17.80;99.90;;;;;;4981475;28;20481;-82
2021/08/09 08:37:48;;;;;;;5.87;5.27;;;18.00;99.90;;;;;;4981643;28;20469;-82
2021/08/09 08:40:15;;;;;;;3.53;3.20;;;18.00;99.90;;;;;;4982940;28;21027;-82
2021/08/09 08:42:41;;;;;;;2.43;2.23;;;18.10;99.90;;;;;;4983868;28;20489;-82
2021/08/09 08:45:09;;;;;;;2.87;2.67;;;18.10;99.90;;;;;;4981726;28;20454;-81
2021/08/09 08:47:37;;;;;;;3.40;2.50;;;18.10;99.90;;;;;;4994142;23;20561;-80
2021/08/09 08:53:19;;;;;;;4.20;2.60;;;;;;;;;;4935104;28;20451;-81
2021/08/09 08:55:56;;;;;;;4.37;3.17;;;18.20;99.90;;;;;;4958277;28;20545;-81
2021/08/09 08:58:58;;;;;;;;;;;;;;;;;;;;;
2021/08/09 09:01:46;;;;;;;3.03;2.77;;;17.80;99.90;;;;;;4955253;28;20537;-80
2021/08/09 09:05:07;;;;;;;3.43;3.13;;;18.50;99.90;;;;;;4497725;27;17808775;-81
2021/08/09 09:07:59;;;;;;;2.87;2.27;;;18.50;99.90;;;;;;5149144;27;20274;-81
2021/08/09 09:24:30;;;;;;;4.53;3.07;;;18.70;99.90;;;;;;5034458;28;20888;-79
2021/08/09 09:31:23;;;;;;;8.30;2.87;;;18.20;99.90;;;;;;4988732;28;20446;-80
2021/08/09 09:45:06;;;;;;;5.30;2.97;;;19.20;99.90;;;;;;4911704;29;20502;-79
2021/08/09 09:56:10;;;;;;;2.37;2.17;;;19.70;99.90;;;;;;4908240;28;20515;-78
2021/08/09 10:24:55;;;;;;;6.80;3.13;;;20.10;99.90;;;;;;4929733;28;21010;-79
2021/08/09 10:28:16;;;;;;;;;;;;;;;;;;;;;
2021/08/09 10:37:23;;;;;;;5.80;2.87;;;20.30;99.90;;;;;;5049672;28;20457;-79
2021/08/09 10:43:43;;;;;;;3.23;2.77;;;20.40;99.90;;;;;;5092603;28;20552;-79
2021/08/09 10:46:44;;;;;;;2.97;2.67;;;20.60;99.90;;;;;;5098067;28;20479;-79
2021/08/09 10:58:57;;;;;;;8.53;4.17;;;20.80;99.90;;;;;;5147358;22;20479;-78
2021/08/09 11:01:25;;;;;;;3.70;3.30;;;20.70;99.90;;;;;;5121107;28;20430;-79
2021/08/09 11:04:16;;;;;;;6.00;3.20;;;21.00;99.90;;;;;;5123029;28;20482;-78
2021/08/09 11:06:53;;;;;;;4.60;2.37;;;20.90;99.90;;;;;;5116514;28;20514;-79
2021/08/09 11:09:43;;;;;;;7.30;3.67;;;21.00;99.90;;;;;;5105025;28;20555;-79
2021/08/09 11:12:12;;;;;;;3.30;3.00;;;21.10;99.90;;;;;;5142135;22;20574;-79
2021/08/09 11:15:15;;;;;;;7.43;2.63;;;22.00;99.90;;;;;;5142565;27;20467;-81
2021/08/09 11:17:50;;;;;;;4.50;2.40;;;21.30;99.90;;;;;;5150649;27;20513;-80
2021/08/09 11:20:20;;;;;;;3.57;3.27;;;21.40;99.90;;;;;;5146376;27;20468;-79
2021/08/09 11:22:48;;;;;;;3.90;3.13;;;21.40;99.90;;;;;;5126982;27;20475;-78
2021/08/09 11:25:30;;;;;;;6.97;4.90;;;21.50;99.90;;;;;;5126102;28;20443;-79
2021/08/09 11:28:01;;;;;;;4.80;2.23;;;21.50;99.90;;;;;;5128686;28;20439;-79
2021/08/09 11:30:41;;;;;;;3.70;3.40;;;21.60;99.90;;;;;;5125579;28;20431;-79
2021/08/09 11:33:17;;;;;;;3.93;1.97;;;21.70;99.90;;;;;;5124687;28;20463;-79
2021/08/09 11:35:45;;;;;;;5.80;2.50;;;21.70;99.90;;;;;;5124318;28;20518;-80
2021/08/09 11:38:12;;;;;;;5.30;3.00;;;21.80;99.90;;;;;;5127001;28;20429;-80
2021/08/09 11:40:41;;;;;;;8.57;3.87;;;21.80;99.90;;;;;;5122390;28;20467;-79
2021/08/09 11:43:09;;;;;;;8.33;5.90;;;21.80;99.90;;;;;;5120525;28;20491;-79
2021/08/09 11:45:37;;;;;;;5.97;4.57;;;21.90;99.90;;;;;;5122260;28;20447;-78
2021/08/09 11:48:05;;;;;;;6.00;4.13;;;22.00;99.90;;;;;;5126715;28;20439;-78
2021/08/09 11:50:38;;;;;;;3.60;2.43;;;22.00;99.90;;;;;;5125766;28;20851;-79
2021/08/09 11:53:16;;;;;;;3.37;2.50;;;22.10;99.90;;;;;;5121828;28;20512;-78
2021/08/09 11:55:43;;;;;;;5.63;3.83;;;22.20;99.90;;;;;;5121547;28;20453;-79
2021/08/09 11:58:10;;;;;;;1.90;1.73;;;22.30;99.90;;;;;;5121282;28;20456;-79
2021/08/09 12:00:40;;;;;;;5.23;2.40;;;22.50;99.90;;;;;;5124974;28;20454;-80
2021/08/09 12:03:15;;;;;;;4.93;2.77;;;22.40;99.90;;;;;;5122602;28;20474;-79
2021/08/09 12:05:42;;;;;;;2.70;1.80;;;22.50;99.90;;;;;;5124412;28;20422;-80
2021/08/09 12:08:09;;;;;;;3.47;2.77;;;22.50;99.90;;;;;;5124308;28;20968;-79
2021/08/09 12:10:40;;;;;;;5.40;2.53;;;22.90;99.90;;;;;;5121080;28;20942;-79
2021/08/09 12:13:26;;;;;;;2.90;2.43;;;22.60;99.90;;;;;;5123464;28;20841;-80
2021/08/09 12:16:19;;;;;;;4.07;2.73;;;22.60;99.90;;;;;;5122451;28;20503;-79
2021/08/09 12:18:54;;;;;;;9.40;8.33;;;22.20;99.90;;;;;;5122527;28;20459;-79
2021/08/09 12:21:22;;;;;;;10.60;5.67;;;22.60;99.90;;;;;;5120426;28;20443;-81
2021/08/09 12:23:54;;;;;;;3.63;3.33;;;22.50;99.90;;;;;;5119727;28;20482;-79
2021/08/09 12:26:26;;;;;;;4.57;3.83;;;22.50;99.90;;;;;;5119506;28;20530;-79
2021/08/09 12:28:54;;;;;;;3.53;2.20;;;22.40;99.90;;;;;;5117680;28;20448;-79
2021/08/09 12:31:40;;;;;;;4.50;1.77;;;22.40;99.90;;;;;;5118920;28;20480;-82
2021/08/09 12:34:09;;;;;;;3.73;1.77;;;22.30;99.90;;;;;;5117335;28;20416;-81
2021/08/09 12:36:37;;;;;;;3.20;2.20;;;22.40;99.90;;;;;;5118411;28;20501;-79
2021/08/09 12:39:05;;;;;;;2.40;1.83;;;22.30;99.90;;;;;;5117388;28;20447;-79
2021/08/09 12:41:33;;;;;;;4.33;2.97;;;22.30;99.90;;;;;;5119193;28;20467;-80
2021/08/09 12:44:04;;;;;;;5.20;3.03;;;22.30;99.90;;;;;;5117296;28;20506;-79
2021/08/09 12:46:32;;;;;;;11.63;7.73;;;22.60;99.90;;;;;;5120076;28;20442;-79
2021/08/09 12:49:00;;;;;;;3.03;2.83;;;22.30;99.90;;;;;;5121264;28;20451;-79
2021/08/09 12:51:31;;;;;;;4.00;2.43;;;22.40;99.90;;;;;;5126152;28;20471;-82
2021/08/09 12:53:57;;;;;;;2.13;1.70;;;22.50;99.90;;;;;;5128705;28;20440;-79
2021/08/09 12:56:24;;;;;;;2.87;2.00;;;22.50;99.90;;;;;;5122689;28;20443;-80
2021/08/09 12:58:51;;;;;;;6.53;3.50;;;22.60;99.90;;;;;;5119655;28;20445;-80
2021/08/09 13:01:18;;;;;;;4.07;2.63;;;23.20;99.90;;;;;;5120704;28;20450;-81
2021/08/09 13:03:46;;;;;;;2.90;2.43;;;22.90;99.90;;;;;;5117977;28;20490;-81
2021/08/09 13:06:15;;;;;;;4.40;2.50;;;22.70;99.90;;;;;;5120615;28;20477;-80
2021/08/09 13:08:44;;;;;;;3.93;2.10;;;23.00;99.90;;;;;;5120764;28;20455;-79
2021/08/09 13:11:12;;;;;;;3.20;1.80;;;23.10;99.90;;;;;;5119667;28;20454;-81
2021/08/09 13:13:39;;;;;;;3.27;2.60;;;23.40;99.90;;;;;;5121322;28;20500;-80
2021/08/09 13:16:09;;;;;;;4.50;3.20;;;23.00;99.90;;;;;;5120670;28;20452;-79
2021/08/09 13:18:42;;;;;;;5.03;2.40;;;22.90;99.90;;;;;;5121165;28;20497;-80
2021/08/09 13:21:50;;;;;;;5.17;3.37;;;22.80;99.90;;;;;;5120182;28;20458;-80
2021/08/09 13:24:49;;;;;;;4.63;3.23;;;22.90;99.90;;;;;;5117908;28;20528;-79
2021/08/09 13:32:52;;;;;;;7.47;5.13;;;;;;;;;;5123515;28;20471;-80
2021/08/09 13:35:35;;;;;;;6.80;3.23;;;23.00;99.90;;;;;;5125509;28;20408;-79
2021/08/09 13:38:16;;;;;;;6.03;2.30;;;23.10;99.90;;;;;;5129822;28;20487;-80
2021/08/09 13:40:50;;;;;;;2.47;2.00;;;23.50;99.90;;;;;;5135769;28;20427;-81
2021/08/09 13:43:17;;;;;;;2.60;2.40;;;;;;;;;;5134927;28;20478;-80
2021/08/09 13:45:46;;;;;;;2.40;1.70;;;22.80;99.90;;;;;;5135593;28;20482;-79
2021/08/09 13:48:15;;;;;;;3.50;2.43;;;;;;;;;;5132684;28;20496;-79
2021/08/09 13:50:42;;;;;;;2.10;1.90;;;;;;;;;;5128425;28;20507;-80
2021/08/09 13:53:09;;;;;;;4.10;3.30;;;;;;;;;;5125142;28;20574;-81
2021/08/09 13:55:47;;;;;;;2.77;2.57;;;22.70;99.90;;;;;;5125366;28;20439;-80
2021/08/09 13:58:16;;;;;;;4.23;3.50;;;22.70;99.90;;;;;;5123998;28;20564;-80
2021/08/09 14:00:49;;;;;;;4.30;3.33;;;;;;;;;;5122900;28;20470;-79
2021/08/09 14:03:17;;;;;;;4.67;2.63;;;;;;;;;;5128623;28;20451;-79
2021/08/09 14:05:54;;;;;;;3.77;2.53;;;23.50;99.90;;;;;;5129776;28;20475;-80
2021/08/09 14:08:29;;;;;;;3.00;2.30;;;22.40;99.90;;;;;;5121779;28;20510;-80
2021/08/09 14:11:46;;;;;;;;;;;;;;;;;;;;;
2021/08/09 14:14:20;;;;;;;3.30;2.63;;;23.00;99.90;;;;;;5115234;28;20538;-81
2021/08/09 14:16:48;;;;;;;3.70;1.90;;;25.70;99.90;;;;;;5122906;28;20934;-80
2021/08/09 14:19:30;;;;;;;5.30;2.80;;;23.30;99.90;;;;;;5121773;28;20949;-79
2021/08/09 14:21:58;;;;;;;3.60;3.07;;;;;;;;;;5130779;28;20531;-79
2021/08/09 14:25:07;;;;;;;3.03;2.77;;;23.10;99.90;;;;;;5126098;28;20474;-82
2021/08/09 14:27:41;;;;;;;3.07;2.30;;;23.00;99.90;;;;;;5105925;28;20466;-79
2021/08/09 14:30:47;;;;;;;3.27;1.97;;;23.00;99.90;;;;;;5124215;28;20420;-79
2021/08/09 14:36:16;;;;;;;3.37;2.87;;;23.20;99.90;;;;;;5119545;28;20435;-81
2021/08/09 14:38:47;;;;;;;5.53;4.00;;;;;;;;;;5121884;28;20922;-80
2021/08/09 14:41:15;;;;;;;2.20;2.00;;;23.20;99.90;;;;;;5123377;27;20420;-81
2021/08/09 14:43:48;;;;;;;3.70;2.33;;;23.50;99.90;;;;;;5121700;28;20447;-80
2021/08/09 14:49:03;;;;;;;3.90;2.27;;;23.00;99.90;;;;;;5110544;28;20457;-81